sensor_id;sensor_type;location;lat;lon;timestamp;P1;durP1;ratioP1;P2;durP2;ratioP2
41456;SDS011;27197;51.752;5.220;2023-06-14T08:58:01;4.67;;;2.22;;
41456;SDS011;27197;51.752;5.220;2023-06-14T09:00:32;4.45;;;2.60;;
41456;SDS011;27197;51.752;5.220;2023-06-14T09:03:03;3.65;;;1.70;;
41456;SDS011;27197;51.752;5.220;2023-06-14T09:05:34;2.80;;;1.57;;
41456;SDS011;27197;51.752;5.220;2023-06-14T09:08:03;4.65;;;2.05;;
41456;SDS011;27197;51.752;5.220;2023-06-14T09:10:33;4.15;;;1.92;;
41456;SDS011;27197;51.752;5.220;2023-06-14T09:13:06;7.87;;;2.12;;
41456;SDS011;27197;51.752;5.220;2023-06-14T09:15:35;4.28;;;1.87;;
41456;SDS011;27197;51.752;5.220;2023-06-14T09:18:06;3.33;;;2.05;;
41456;SDS011;27197;51.752;5.220;2023-06-14T09:20:36;4.78;;;1.77;;
41456;SDS011;27197;51.752;5.220;2023-06-14T09:23:06;3.02;;;1.80;;
41456;SDS011;27197;51.752;5.220;2023-06-14T09:25:46;3.55;;;1.70;;
41456;SDS011;27197;51.752;5.220;2023-06-14T09:28:12;2.42;;;1.47;;
41456;SDS011;27197;51.752;5.220;2023-06-14T09:30:43;3.30;;;1.80;;
41456;SDS011;27197;51.752;5.220;2023-06-14T09:33:18;3.90;;;1.72;;
41456;SDS011;27197;51.752;5.220;2023-06-14T09:35:50;3.52;;;1.40;;
41456;SDS011;27197;51.752;5.220;2023-06-14T09:38:20;2.62;;;1.75;;
41456;SDS011;27197;51.752;5.220;2023-06-14T09:40:52;2.50;;;1.47;;
41456;SDS011;27197;51.752;5.220;2023-06-14T09:43:25;6.03;;;1.35;;
41456;SDS011;27197;51.752;5.220;2023-06-14T09:45:56;5.15;;;1.60;;
41456;SDS011;27197;51.752;5.220;2023-06-14T09:48:33;7.42;;;2.00;;
41456;SDS011;27197;51.752;5.220;2023-06-14T09:51:02;5.20;;;1.85;;
41456;SDS011;27197;51.752;5.220;2023-06-14T09:53:34;3.35;;;1.75;;
41456;SDS011;27197;51.752;5.220;2023-06-14T09:56:06;5.08;;;2.12;;
41456;SDS011;27197;51.752;5.220;2023-06-14T09:58:39;3.37;;;1.70;;
41456;SDS011;27197;51.752;5.220;2023-06-14T10:01:11;2.98;;;1.62;;
41456;SDS011;27197;51.752;5.220;2023-06-14T10:03:43;3.98;;;1.40;;
41456;SDS011;27197;51.752;5.220;2023-06-14T10:06:14;3.08;;;1.40;;
41456;SDS011;27197;51.752;5.220;2023-06-14T10:08:47;8.93;;;1.87;;
41456;SDS011;27197;51.752;5.220;2023-06-14T10:11:23;3.77;;;1.90;;
41456;SDS011;27197;51.752;5.220;2023-06-14T10:13:56;4.03;;;1.77;;
41456;SDS011;27197;51.752;5.220;2023-06-14T10:19:27;5.92;;;2.10;;
41456;SDS011;27197;51.752;5.220;2023-06-14T10:22:05;3.87;;;1.72;;
41456;SDS011;27197;51.752;5.220;2023-06-14T10:24:32;3.35;;;1.80;;
41456;SDS011;27197;51.752;5.220;2023-06-14T10:27:03;5.55;;;1.57;;
41456;SDS011;27197;51.752;5.220;2023-06-14T10:32:32;4.45;;;1.72;;
41456;SDS011;27197;51.752;5.220;2023-06-14T10:35:06;5.75;;;1.80;;
41456;SDS011;27197;51.752;5.220;2023-06-14T10:37:36;3.27;;;1.40;;
41456;SDS011;27197;51.752;5.220;2023-06-14T10:40:09;4.00;;;1.50;;
41456;SDS011;27197;51.752;5.220;2023-06-14T13:45:08;8.30;;;4.08;;
41456;SDS011;27197;51.752;5.220;2023-06-14T13:47:40;7.55;;;3.62;;
41456;SDS011;27197;51.752;5.220;2023-06-14T13:50:09;5.42;;;2.83;;
41456;SDS011;27197;51.752;5.220;2023-06-14T13:52:40;10.45;;;5.03;;
41456;SDS011;27197;51.752;5.220;2023-06-14T13:55:12;11.30;;;5.67;;
41456;SDS011;27197;51.752;5.220;2023-06-14T13:57:42;6.35;;;3.70;;
41456;SDS011;27197;51.752;5.220;2023-06-14T14:00:11;9.38;;;4.85;;
41456;SDS011;27197;51.752;5.220;2023-06-14T14:02:43;12.15;;;5.87;;
41456;SDS011;27197;51.752;5.220;2023-06-14T14:05:13;10.85;;;6.35;;
41456;SDS011;27197;51.752;5.220;2023-06-14T14:07:43;9.45;;;5.12;;
41456;SDS011;27197;51.752;5.220;2023-06-14T14:10:13;12.68;;;6.17;;
41456;SDS011;27197;51.752;5.220;2023-06-14T14:12:43;10.88;;;4.42;;
41456;SDS011;27197;51.752;5.220;2023-06-14T14:15:17;6.65;;;3.17;;
41456;SDS011;27197;51.752;5.220;2023-06-14T14:17:47;10.23;;;5.15;;
41456;SDS011;27197;51.752;5.220;2023-06-14T14:20:16;10.38;;;5.22;;
41456;SDS011;27197;51.752;5.220;2023-06-14T14:22:45;10.60;;;5.42;;
41456;SDS011;27197;51.752;5.220;2023-06-14T14:25:16;6.90;;;3.92;;
41456;SDS011;27197;51.752;5.220;2023-06-14T14:27:47;10.13;;;5.50;;
41456;SDS011;27197;51.752;5.220;2023-06-14T14:30:19;4.92;;;2.98;;
41456;SDS011;27197;51.752;5.220;2023-06-14T14:32:49;15.72;;;7.80;;
41456;SDS011;27197;51.752;5.220;2023-06-14T14:35:21;8.50;;;3.35;;
41456;SDS011;27197;51.752;5.220;2023-06-14T14:37:52;19.40;;;9.38;;
41456;SDS011;27197;51.752;5.220;2023-06-14T14:40:22;18.17;;;9.58;;
41456;SDS011;27197;51.752;5.220;2023-06-14T14:42:52;3.95;;;2.47;;
41456;SDS011;27197;51.752;5.220;2023-06-14T14:45:25;21.65;;;8.75;;
41456;SDS011;27197;51.752;5.220;2023-06-14T14:47:55;7.00;;;2.45;;
41456;SDS011;27197;51.752;5.220;2023-06-14T14:50:25;3.92;;;2.12;;
41456;SDS011;27197;51.752;5.220;2023-06-14T14:52:58;3.65;;;1.70;;
41456;SDS011;27197;51.752;5.220;2023-06-14T14:55:27;6.80;;;2.22;;
41456;SDS011;27197;51.752;5.220;2023-06-14T14:58:00;10.85;;;4.92;;
41456;SDS011;27197;51.752;5.220;2023-06-14T15:00:32;13.05;;;7.03;;
41456;SDS011;27197;51.752;5.220;2023-06-14T15:03:02;10.28;;;6.25;;
41456;SDS011;27197;51.752;5.220;2023-06-14T15:05:35;11.78;;;5.83;;
41456;SDS011;27197;51.752;5.220;2023-06-14T15:08:05;15.15;;;7.30;;
41456;SDS011;27197;51.752;5.220;2023-06-14T15:10:42;10.63;;;5.97;;
41456;SDS011;27197;51.752;5.220;2023-06-14T15:13:12;16.82;;;8.53;;
41456;SDS011;27197;51.752;5.220;2023-06-14T15:15:49;15.30;;;7.60;;
41456;SDS011;27197;51.752;5.220;2023-06-14T15:18:22;4.03;;;2.33;;
41456;SDS011;27197;51.752;5.220;2023-06-14T15:20:57;15.15;;;7.83;;
41456;SDS011;27197;51.752;5.220;2023-06-14T15:23:27;9.00;;;4.70;;
41456;SDS011;27197;51.752;5.220;2023-06-14T15:25:58;14.93;;;7.47;;
41456;SDS011;27197;51.752;5.220;2023-06-14T15:28:29;9.70;;;3.85;;
41456;SDS011;27197;51.752;5.220;2023-06-14T15:31:01;14.18;;;6.25;;
41456;SDS011;27197;51.752;5.220;2023-06-14T15:33:30;6.50;;;3.55;;
41456;SDS011;27197;51.752;5.220;2023-06-14T15:36:03;12.60;;;6.20;;
41456;SDS011;27197;51.752;5.220;2023-06-14T15:38:34;11.78;;;6.03;;
41456;SDS011;27197;51.752;5.220;2023-06-14T15:41:07;7.60;;;3.70;;
41456;SDS011;27197;51.752;5.220;2023-06-14T15:43:38;9.20;;;4.60;;
41456;SDS011;27197;51.752;5.220;2023-06-14T15:46:08;9.30;;;4.87;;
41456;SDS011;27197;51.752;5.220;2023-06-14T15:48:39;11.88;;;5.85;;
41456;SDS011;27197;51.752;5.220;2023-06-14T15:51:11;13.20;;;7.40;;
41456;SDS011;27197;51.752;5.220;2023-06-14T15:53:41;10.50;;;5.25;;
41456;SDS011;27197;51.752;5.220;2023-06-14T15:56:12;15.15;;;8.40;;
41456;SDS011;27197;51.752;5.220;2023-06-14T15:58:42;15.15;;;7.83;;
41456;SDS011;27197;51.752;5.220;2023-06-14T16:01:12;6.05;;;1.75;;
41456;SDS011;27197;51.752;5.220;2023-06-14T16:03:42;2.85;;;1.55;;
41456;SDS011;27197;51.752;5.220;2023-06-14T16:06:13;3.05;;;1.10;;
41456;SDS011;27197;51.752;5.220;2023-06-14T16:08:44;2.22;;;1.10;;
41456;SDS011;27197;51.752;5.220;2023-06-14T16:11:14;3.00;;;1.10;;
41456;SDS011;27197;51.752;5.220;2023-06-14T16:13:45;1.98;;;1.25;;
41456;SDS011;27197;51.752;5.220;2023-06-14T16:16:17;2.15;;;1.10;;
41456;SDS011;27197;51.752;5.220;2023-06-14T16:18:48;3.55;;;1.12;;
41456;SDS011;27197;51.752;5.220;2023-06-14T16:21:21;5.35;;;2.90;;
41456;SDS011;27197;51.752;5.220;2023-06-14T16:23:52;5.08;;;2.37;;
41456;SDS011;27197;51.752;5.220;2023-06-14T16:26:23;5.92;;;3.20;;
41456;SDS011;27197;51.752;5.220;2023-06-14T16:28:53;10.08;;;5.10;;
41456;SDS011;27197;51.752;5.220;2023-06-14T16:31:23;12.90;;;7.53;;
41456;SDS011;27197;51.752;5.220;2023-06-14T16:33:54;11.08;;;6.05;;
41456;SDS011;27197;51.752;5.220;2023-06-14T16:36:26;13.10;;;6.95;;
41456;SDS011;27197;51.752;5.220;2023-06-14T16:38:56;21.62;;;10.38;;
41456;SDS011;27197;51.752;5.220;2023-06-14T16:41:26;12.03;;;6.35;;
41456;SDS011;27197;51.752;5.220;2023-06-14T16:43:56;21.10;;;11.20;;
41456;SDS011;27197;51.752;5.220;2023-06-14T16:46:27;12.28;;;6.53;;
41456;SDS011;27197;51.752;5.220;2023-06-14T16:48:57;4.50;;;2.50;;
41456;SDS011;27197;51.752;5.220;2023-06-14T16:51:30;5.90;;;3.08;;
41456;SDS011;27197;51.752;5.220;2023-06-14T16:54:00;8.88;;;4.33;;
41456;SDS011;27197;51.752;5.220;2023-06-14T16:56:29;9.53;;;5.00;;
41456;SDS011;27197;51.752;5.220;2023-06-14T16:58:59;5.22;;;2.65;;
41456;SDS011;27197;51.752;5.220;2023-06-14T17:01:30;6.10;;;3.17;;
41456;SDS011;27197;51.752;5.220;2023-06-14T17:04:03;7.00;;;2.90;;
41456;SDS011;27197;51.752;5.220;2023-06-14T17:06:34;9.75;;;4.72;;
41456;SDS011;27197;51.752;5.220;2023-06-14T17:09:09;10.18;;;4.67;;
41456;SDS011;27197;51.752;5.220;2023-06-14T17:11:39;7.85;;;4.22;;
41456;SDS011;27197;51.752;5.220;2023-06-14T17:14:09;8.30;;;3.92;;
41456;SDS011;27197;51.752;5.220;2023-06-14T17:16:38;5.50;;;2.42;;
41456;SDS011;27197;51.752;5.220;2023-06-14T17:19:09;8.15;;;4.80;;
41456;SDS011;27197;51.752;5.220;2023-06-14T17:21:39;8.28;;;4.53;;
41456;SDS011;27197;51.752;5.220;2023-06-14T17:24:11;7.28;;;4.03;;
41456;SDS011;27197;51.752;5.220;2023-06-14T17:26:42;6.08;;;3.15;;
41456;SDS011;27197;51.752;5.220;2023-06-14T17:29:16;13.15;;;7.15;;
41456;SDS011;27197;51.752;5.220;2023-06-14T17:31:47;10.53;;;4.62;;
41456;SDS011;27197;51.752;5.220;2023-06-14T17:34:19;6.42;;;3.58;;
41456;SDS011;27197;51.752;5.220;2023-06-14T17:36:50;5.80;;;3.17;;
41456;SDS011;27197;51.752;5.220;2023-06-14T17:39:24;9.08;;;4.70;;
41456;SDS011;27197;51.752;5.220;2023-06-14T17:41:54;5.17;;;3.08;;
41456;SDS011;27197;51.752;5.220;2023-06-14T17:44:27;7.95;;;3.33;;
41456;SDS011;27197;51.752;5.220;2023-06-14T17:46:58;8.73;;;3.40;;
41456;SDS011;27197;51.752;5.220;2023-06-14T17:49:31;9.35;;;4.95;;
41456;SDS011;27197;51.752;5.220;2023-06-14T17:52:01;7.72;;;4.08;;
41456;SDS011;27197;51.752;5.220;2023-06-14T17:54:29;7.42;;;4.05;;
41456;SDS011;27197;51.752;5.220;2023-06-14T17:56:59;6.80;;;3.42;;
41456;SDS011;27197;51.752;5.220;2023-06-14T17:59:30;13.30;;;4.45;;
41456;SDS011;27197;51.752;5.220;2023-06-14T18:02:00;8.33;;;3.95;;
41456;SDS011;27197;51.752;5.220;2023-06-14T18:04:31;5.55;;;2.62;;
41456;SDS011;27197;51.752;5.220;2023-06-14T18:07:04;4.62;;;2.42;;
41456;SDS011;27197;51.752;5.220;2023-06-14T18:09:35;5.92;;;2.55;;
41456;SDS011;27197;51.752;5.220;2023-06-14T18:12:05;5.33;;;2.37;;
41456;SDS011;27197;51.752;5.220;2023-06-14T18:14:36;8.13;;;3.98;;
41456;SDS011;27197;51.752;5.220;2023-06-14T18:17:04;7.42;;;3.75;;
41456;SDS011;27197;51.752;5.220;2023-06-14T18:19:33;7.22;;;3.65;;
41456;SDS011;27197;51.752;5.220;2023-06-14T18:22:03;3.20;;;1.50;;
41456;SDS011;27197;51.752;5.220;2023-06-14T18:24:33;2.37;;;1.50;;
41456;SDS011;27197;51.752;5.220;2023-06-14T18:27:03;5.78;;;2.40;;
41456;SDS011;27197;51.752;5.220;2023-06-14T18:29:34;7.08;;;3.35;;
41456;SDS011;27197;51.752;5.220;2023-06-14T18:32:05;4.78;;;2.65;;
41456;SDS011;27197;51.752;5.220;2023-06-14T18:34:40;3.67;;;1.50;;
41456;SDS011;27197;51.752;5.220;2023-06-14T18:37:09;3.27;;;1.50;;
41456;SDS011;27197;51.752;5.220;2023-06-14T18:39:42;7.60;;;3.65;;
41456;SDS011;27197;51.752;5.220;2023-06-14T18:42:12;7.72;;;3.37;;
41456;SDS011;27197;51.752;5.220;2023-06-14T18:44:42;4.10;;;2.05;;
41456;SDS011;27197;51.752;5.220;2023-06-14T18:47:12;9.63;;;3.83;;
41456;SDS011;27197;51.752;5.220;2023-06-14T18:49:42;6.25;;;3.60;;
41456;SDS011;27197;51.752;5.220;2023-06-14T18:52:15;7.20;;;3.15;;
41456;SDS011;27197;51.752;5.220;2023-06-14T18:54:50;3.02;;;1.87;;
41456;SDS011;27197;51.752;5.220;2023-06-14T18:57:21;5.05;;;3.02;;
41456;SDS011;27197;51.752;5.220;2023-06-14T18:59:51;3.33;;;1.90;;
41456;SDS011;27197;51.752;5.220;2023-06-14T19:02:22;4.15;;;1.40;;
41456;SDS011;27197;51.752;5.220;2023-06-14T19:04:53;4.12;;;2.25;;
41456;SDS011;27197;51.752;5.220;2023-06-14T19:07:23;2.87;;;1.75;;
41456;SDS011;27197;51.752;5.220;2023-06-14T19:09:55;3.92;;;1.75;;
41456;SDS011;27197;51.752;5.220;2023-06-14T19:12:25;5.03;;;3.15;;
41456;SDS011;27197;51.752;5.220;2023-06-14T19:14:56;4.17;;;1.82;;
41456;SDS011;27197;51.752;5.220;2023-06-14T19:17:27;4.35;;;1.72;;
41456;SDS011;27197;51.752;5.220;2023-06-14T19:19:57;4.58;;;2.40;;
41456;SDS011;27197;51.752;5.220;2023-06-14T19:22:28;3.22;;;2.00;;
41456;SDS011;27197;51.752;5.220;2023-06-14T19:24:58;7.70;;;3.62;;
41456;SDS011;27197;51.752;5.220;2023-06-14T19:27:29;5.92;;;3.25;;
41456;SDS011;27197;51.752;5.220;2023-06-14T19:29:59;6.33;;;1.60;;
41456;SDS011;27197;51.752;5.220;2023-06-14T19:32:29;2.60;;;1.57;;
41456;SDS011;27197;51.752;5.220;2023-06-14T19:35:02;3.70;;;1.82;;
41456;SDS011;27197;51.752;5.220;2023-06-14T19:37:32;3.50;;;1.82;;
41456;SDS011;27197;51.752;5.220;2023-06-14T19:40:06;2.50;;;1.50;;
41456;SDS011;27197;51.752;5.220;2023-06-14T19:42:40;3.92;;;1.98;;
41456;SDS011;27197;51.752;5.220;2023-06-14T19:45:16;3.22;;;1.85;;
41456;SDS011;27197;51.752;5.220;2023-06-14T19:47:52;5.25;;;1.90;;
41456;SDS011;27197;51.752;5.220;2023-06-14T19:50:29;3.37;;;1.80;;
41456;SDS011;27197;51.752;5.220;2023-06-14T19:52:59;2.35;;;1.40;;
41456;SDS011;27197;51.752;5.220;2023-06-14T19:55:32;7.92;;;4.47;;
41456;SDS011;27197;51.752;5.220;2023-06-14T19:58:01;4.17;;;1.82;;
41456;SDS011;27197;51.752;5.220;2023-06-14T20:00:32;3.08;;;1.70;;
41456;SDS011;27197;51.752;5.220;2023-06-14T20:03:06;3.60;;;2.22;;
41456;SDS011;27197;51.752;5.220;2023-06-14T20:05:39;2.17;;;1.42;;
41456;SDS011;27197;51.752;5.220;2023-06-14T20:08:12;4.30;;;2.55;;
41456;SDS011;27197;51.752;5.220;2023-06-14T20:10:42;11.75;;;5.47;;
41456;SDS011;27197;51.752;5.220;2023-06-14T20:13:13;9.10;;;5.00;;
41456;SDS011;27197;51.752;5.220;2023-06-14T20:15:43;9.75;;;4.67;;
41456;SDS011;27197;51.752;5.220;2023-06-14T20:18:16;8.45;;;5.55;;
41456;SDS011;27197;51.752;5.220;2023-06-14T20:20:48;11.88;;;5.62;;
41456;SDS011;27197;51.752;5.220;2023-06-14T20:23:22;6.80;;;3.83;;
41456;SDS011;27197;51.752;5.220;2023-06-14T20:25:58;12.63;;;6.10;;
41456;SDS011;27197;51.752;5.220;2023-06-14T20:28:29;12.68;;;6.70;;
41456;SDS011;27197;51.752;5.220;2023-06-14T20:30:59;3.52;;;2.05;;
41456;SDS011;27197;51.752;5.220;2023-06-14T20:33:33;7.47;;;3.72;;
41456;SDS011;27197;51.752;5.220;2023-06-14T20:36:06;4.90;;;2.02;;
41456;SDS011;27197;51.752;5.220;2023-06-14T20:38:38;4.40;;;2.15;;
41456;SDS011;27197;51.752;5.220;2023-06-14T20:41:08;2.85;;;1.95;;
41456;SDS011;27197;51.752;5.220;2023-06-14T20:43:36;7.08;;;3.67;;
41456;SDS011;27197;51.752;5.220;2023-06-14T20:46:06;2.87;;;2.05;;
41456;SDS011;27197;51.752;5.220;2023-06-14T20:48:38;7.83;;;3.60;;
41456;SDS011;27197;51.752;5.220;2023-06-14T20:51:08;4.15;;;1.87;;
41456;SDS011;27197;51.752;5.220;2023-06-14T20:53:38;3.47;;;1.72;;
41456;SDS011;27197;51.752;5.220;2023-06-14T20:56:11;2.47;;;1.45;;
41456;SDS011;27197;51.752;5.220;2023-06-14T20:58:42;2.12;;;1.35;;
41456;SDS011;27197;51.752;5.220;2023-06-14T21:01:12;3.12;;;1.98;;
41456;SDS011;27197;51.752;5.220;2023-06-14T21:03:42;3.90;;;1.80;;
41456;SDS011;27197;51.752;5.220;2023-06-14T21:06:12;3.85;;;1.67;;
41456;SDS011;27197;51.752;5.220;2023-06-14T21:08:48;2.37;;;1.50;;
41456;SDS011;27197;51.752;5.220;2023-06-14T21:11:19;4.20;;;2.15;;
41456;SDS011;27197;51.752;5.220;2023-06-14T21:13:53;2.70;;;1.80;;
41456;SDS011;27197;51.752;5.220;2023-06-14T21:16:24;3.60;;;2.10;;
41456;SDS011;27197;51.752;5.220;2023-06-14T21:18:55;4.15;;;2.00;;
41456;SDS011;27197;51.752;5.220;2023-06-14T21:21:27;4.72;;;2.25;;
41456;SDS011;27197;51.752;5.220;2023-06-14T21:24:02;4.70;;;2.30;;
41456;SDS011;27197;51.752;5.220;2023-06-14T21:26:34;2.70;;;1.90;;
41456;SDS011;27197;51.752;5.220;2023-06-14T21:29:04;2.58;;;1.82;;
41456;SDS011;27197;51.752;5.220;2023-06-14T21:31:35;4.95;;;2.25;;
41456;SDS011;27197;51.752;5.220;2023-06-14T21:34:06;3.27;;;2.27;;
41456;SDS011;27197;51.752;5.220;2023-06-14T21:36:36;3.35;;;2.15;;
41456;SDS011;27197;51.752;5.220;2023-06-14T21:39:08;3.92;;;2.05;;
41456;SDS011;27197;51.752;5.220;2023-06-14T21:41:45;6.42;;;1.92;;
41456;SDS011;27197;51.752;5.220;2023-06-14T21:44:15;4.10;;;2.05;;
41456;SDS011;27197;51.752;5.220;2023-06-14T21:46:46;3.67;;;2.25;;
41456;SDS011;27197;51.752;5.220;2023-06-14T21:49:19;5.78;;;2.37;;
41456;SDS011;27197;51.752;5.220;2023-06-14T21:51:49;6.12;;;2.40;;
41456;SDS011;27197;51.752;5.220;2023-06-14T21:54:19;5.72;;;2.70;;
41456;SDS011;27197;51.752;5.220;2023-06-14T21:56:49;4.12;;;2.10;;
41456;SDS011;27197;51.752;5.220;2023-06-14T21:59:20;5.17;;;2.65;;
41456;SDS011;27197;51.752;5.220;2023-06-14T22:01:51;4.53;;;2.30;;
41456;SDS011;27197;51.752;5.220;2023-06-14T22:04:23;3.05;;;2.10;;
